Time;durP1;ratioP1;P1;durP2;ratioP2;P2;SDS_P1;SDS_P2;PMS_P1;PMS_P2;Temp;Humidity;BMP_temperature;BMP_pressure;BME280_temperature;BME280_humidity;BME280_pressure;Samples;Min_cycle;Max_cycle;Signal;HPM_P1;HPM_P2
2022/05/16 00:00:06;;;;;;;0.10;0.10;;;;;;;;;;5092956;28;20130;-79
2022/05/16 00:02:32;;;;;;;0.10;0.10;;;;;;;;;;5093859;28;20021;-78
2022/05/16 00:04:58;;;;;;;0.10;0.10;;;;;;;;;;5092139;28;20126;-80
2022/05/16 00:07:24;;;;;;;0.10;0.10;;;;;;;;;;5093741;28;20036;-80
2022/05/16 00:09:50;;;;;;;0.00;0.00;;;;;;;;;;5092567;28;20055;-79
2022/05/16 00:12:17;;;;;;;0.10;0.10;;;;;;;;;;5093655;28;20043;-79
2022/05/16 00:14:45;;;;;;;0.10;0.10;;;;;;;;;;5093574;28;20077;-78
2022/05/16 00:17:12;;;;;;;0.10;0.10;;;;;;;;;;5093722;28;20028;-79
2022/05/16 00:19:39;;;;;;;0.10;0.10;;;;;;;;;;5093908;28;20038;-80
2022/05/16 00:22:05;;;;;;;0.00;0.00;;;;;;;;;;5093894;28;20024;-80
2022/05/16 00:24:32;;;;;;;0.10;0.10;;;;;;;;;;5092135;28;20027;-80
2022/05/16 00:27:01;;;;;;;0.10;0.10;;;;;;;;;;5093125;28;20095;-79
2022/05/16 00:29:27;;;;;;;0.10;0.10;;;;;;;;;;5093446;28;20024;-79
2022/05/16 00:31:54;;;;;;;0.10;0.10;;;;;;;;;;5093066;28;20020;-81
2022/05/16 00:34:20;;;;;;;0.00;0.00;;;;;;;;;;5093397;28;20026;-79
2022/05/16 00:36:47;;;;;;;0.10;0.10;;;;;;;;;;5093099;28;20153;-79
2022/05/16 00:39:14;;;;;;;0.10;0.10;;;;;;;;;;5093201;28;20043;-78
2022/05/16 00:41:41;;;;;;;0.10;0.10;;;;;;;;;;5093031;28;20023;-80
2022/05/16 00:44:07;;;;;;;0.10;0.10;;;;;;;;;;5092230;28;20476;-79
2022/05/16 00:46:33;;;;;;;0.10;0.10;;;;;;;;;;5093018;28;20115;-79
2022/05/16 00:48:59;;;;;;;0.10;0.10;;;;;;;;;;5092866;28;20389;-80
2022/05/16 00:51:25;;;;;;;0.10;0.10;;;;;;;;;;5092907;28;20091;-79
2022/05/16 00:53:54;;;;;;;0.10;0.10;;;;;;;;;;5092540;28;20116;-80
2022/05/16 00:56:20;;;;;;;0.10;0.10;;;;;;;;;;5092942;28;20090;-80
2022/05/16 00:58:47;;;;;;;0.10;0.10;;;;;;;;;;5092598;28;20581;-79
2022/05/16 01:06:43;;;;;;;0.10;0.10;;;;;;;;;;5092323;28;20162;-80
2022/05/16 01:09:09;;;;;;;0.10;0.10;;;;;;;;;;5092646;28;20066;-80
2022/05/16 01:11:36;;;;;;;0.10;0.10;;;;;;;;;;5092854;28;20024;-80
2022/05/16 01:14:03;;;;;;;0.10;0.10;;;;;;;;;;5092227;28;20387;-78
2022/05/16 01:16:29;;;;;;;0.10;0.10;;;;;;;;;;5091125;28;20465;-80
2022/05/16 01:18:55;;;;;;;0.10;0.10;;;;;;;;;;5090775;28;20061;-80
2022/05/16 01:21:41;;;;;;;0.10;0.10;;;;;;;;;;5092263;28;20028;-79
2022/05/16 01:24:09;;;;;;;0.10;0.10;;;;;;;;;;5092530;28;20074;-81
2022/05/16 01:26:36;;;;;;;0.10;0.10;;;;;;;;;;5091315;28;20435;-78
2022/05/16 01:29:03;;;;;;;0.10;0.10;;;;;;;;;;5091956;28;20027;-78
2022/05/16 01:31:29;;;;;;;0.10;0.10;;;;;;;;;;5090980;28;20101;-78
2022/05/16 01:33:56;;;;;;;0.10;0.10;;;;;;;;;;5092011;28;20027;-79
2022/05/16 01:36:22;;;;;;;0.10;0.10;;;;;;;;;;5092129;28;20040;-77
2022/05/16 01:38:48;;;;;;;0.10;0.10;;;;;;;;;;5090503;28;20032;-79
2022/05/16 01:41:15;;;;;;;0.10;0.10;;;;;;;;;;5092052;28;20032;-79
2022/05/16 01:43:43;;;;;;;0.10;0.10;;;;;;;;;;5091856;28;20028;-79
2022/05/16 01:46:10;;;;;;;0.10;0.10;;;;;;;;;;5092134;28;20016;-78
2022/05/16 01:48:37;;;;;;;0.10;0.10;;;;;;;;;;5092312;28;20051;-78
2022/05/16 01:51:07;;;;;;;0.10;0.10;;;;;;;;;;5091527;28;20032;-78
2022/05/16 01:53:34;;;;;;;0.10;0.10;;;;;;;;;;5090460;28;20471;-79
2022/05/16 01:56:00;;;;;;;0.10;0.10;;;;;;;;;;5091654;28;20388;-79
2022/05/16 01:58:26;;;;;;;0.10;0.10;;;;;;;;;;5091654;28;20024;-80
2022/05/16 02:00:52;;;;;;;0.10;0.10;;;;;;;;;;5090275;28;20028;-79
2022/05/16 02:03:19;;;;;;;0.10;0.10;;;;;;;;;;5091644;28;20020;-80
2022/05/16 02:05:45;;;;;;;0.10;0.10;;;;;;;;;;5089965;28;20523;-80
2022/05/16 02:08:12;;;;;;;0.10;0.10;;;;;;;;;;5089992;28;20032;-80
2022/05/16 02:10:39;;;;;;;0.10;0.10;;;;;;;;;;5092217;28;20074;-79
2022/05/16 02:13:06;;;;;;;0.10;0.10;;;;;;;;;;5090507;28;20028;-80
2022/05/16 02:15:33;;;;;;;0.10;0.10;;;;;;;;;;5091569;28;20020;-79
2022/05/16 02:17:59;;;;;;;0.10;0.10;;;;;;;;;;5091245;28;20024;-79
2022/05/16 02:20:26;;;;;;;0.10;0.10;;;;;;;;;;5089986;28;20028;-79
2022/05/16 02:25:38;;;;;;;0.10;0.10;;;;;;;;;;5091522;28;20078;-80
2022/05/16 02:28:05;;;;;;;0.10;0.10;;;;;;;;;;5091603;28;20020;-80
2022/05/16 02:30:31;;;;;;;0.10;0.10;;;;;;;;;;5091263;28;20532;-79
2022/05/16 02:32:57;;;;;;;0.10;0.10;;;;;;;;;;5090545;28;20043;-79
2022/05/16 02:35:24;;;;;;;0.08;0.08;;;;;;;;;;5091290;28;20024;-80
2022/05/16 02:37:50;;;;;;;0.10;0.10;;;;;;;;;;5090980;28;20039;-79
2022/05/16 02:40:16;;;;;;;0.10;0.10;;;;;;;;;;5091216;28;20072;-79
2022/05/16 02:42:43;;;;;;;0.10;0.10;;;;;;;;;;5091000;28;20020;-78
2022/05/16 02:45:09;;;;;;;0.10;0.10;;;;;;;;;;5091380;28;20188;-79
2022/05/16 02:47:35;;;;;;;0.10;0.10;;;;;;;;;;5091409;28;20016;-78
2022/05/16 02:50:01;;;;;;;0.10;0.10;;;;;;;;;;5091021;28;20502;-79
2022/05/16 02:52:27;;;;;;;0.10;0.10;;;;;;;;;;5089798;28;20020;-79
2022/05/16 02:54:54;;;;;;;0.10;0.10;;;;;;;;;;5090840;28;20028;-78
2022/05/16 02:57:20;;;;;;;0.10;0.10;;;;;;;;;;5091134;28;20012;-79
2022/05/16 02:59:46;;;;;;;0.10;0.10;;;;;;;;;;5090703;28;20056;-78
2022/05/16 03:02:12;;;;;;;0.10;0.10;;;;;;;;;;5090780;28;20442;-78
2022/05/16 03:04:38;;;;;;;0.10;0.10;;;;;;;;;;5089837;28;20438;-78
2022/05/16 03:07:05;;;;;;;0.10;0.10;;;;;;;;;;5089785;28;20143;-78
2022/05/16 03:09:33;;;;;;;0.10;0.10;;;;;;;;;;5090930;28;20032;-79
2022/05/16 03:11:59;;;;;;;0.10;0.10;;;;;;;;;;5089379;28;20532;-79
2022/05/16 03:14:26;;;;;;;0.10;0.10;;;;;;;;;;5090775;28;20107;-78
2022/05/16 03:16:52;;;;;;;0.10;0.10;;;;;;;;;;5090483;28;20383;-78
2022/05/16 03:19:18;;;;;;;0.10;0.10;;;;;;;;;;5090693;28;20480;-78
2022/05/16 03:21:44;;;;;;;0.10;0.10;;;;;;;;;;5090519;28;20099;-78
2022/05/16 03:24:11;;;;;;;0.10;0.10;;;;;;;;;;5089529;28;20020;-79
2022/05/16 03:26:37;;;;;;;0.10;0.10;;;;;;;;;;5091118;28;20024;-78
2022/05/16 03:29:06;;;;;;;0.10;0.10;;;;;;;;;;5090508;28;20095;-78
2022/05/16 03:31:32;;;;;;;0.10;0.10;;;;;;;;;;5090779;28;20024;-78
2022/05/16 03:33:58;;;;;;;0.00;0.00;;;;;;;;;;5090481;28;20145;-78
2022/05/16 03:36:24;;;;;;;0.10;0.10;;;;;;;;;;5090741;28;20028;-78
2022/05/16 03:41:35;;;;;;;0.10;0.10;;;;;;;;;;5091287;28;20125;-79
2022/05/16 03:44:02;;;;;;;0.10;0.10;;;;;;;;;;5090918;28;20031;-78
2022/05/16 03:46:28;;;;;;;0.10;0.10;;;;;;;;;;5094210;28;20059;-80
2022/05/16 03:48:54;;;;;;;0.10;0.10;;;;;;;;;;5094105;28;20430;-78
2022/05/16 03:51:20;;;;;;;0.10;0.10;;;;;;;;;;5094183;28;20062;-78
2022/05/16 03:53:46;;;;;;;0.10;0.10;;;;;;;;;;5093924;28;20035;-78
2022/05/16 03:56:14;;;;;;;0.10;0.10;;;;;;;;;;5094077;28;20384;-78
2022/05/16 03:58:40;;;;;;;0.10;0.10;;;;;;;;;;5093785;28;20035;-79
2022/05/16 04:01:06;;;;;;;0.10;0.10;;;;;;;;;;5092887;28;20369;-79
2022/05/16 04:03:32;;;;;;;0.10;0.10;;;;;;;;;;5092573;28;20073;-78
2022/05/16 04:05:58;;;;;;;0.10;0.10;;;;;;;;;;5093577;28;20027;-79
2022/05/16 04:08:25;;;;;;;0.10;0.10;;;;;;;;;;5093781;28;20031;-78
2022/05/16 04:10:51;;;;;;;0.10;0.10;;;;;;;;;;5092360;28;20399;-78
2022/05/16 04:13:17;;;;;;;0.10;0.10;;;;;;;;;;5093671;28;20449;-79
2022/05/16 04:15:43;;;;;;;0.10;0.10;;;;;;;;;;5093650;28;20048;-79
2022/05/16 04:18:09;;;;;;;0.10;0.10;;;;;;;;;;5093675;28;20028;-79
2022/05/16 04:20:35;;;;;;;0.10;0.10;;;;;;;;;;5093870;28;20106;-78
2022/05/16 04:23:01;;;;;;;0.10;0.10;;;;;;;;;;5093194;28;20107;-78
2022/05/16 04:25:27;;;;;;;0.10;0.10;;;;;;;;;;5093553;28;20024;-78
2022/05/16 04:27:54;;;;;;;0.00;0.00;;;;;;;;;;5093312;28;20052;-78
2022/05/16 04:30:20;;;;;;;0.10;0.10;;;;;;;;;;5093473;28;20078;-78
2022/05/16 04:32:46;;;;;;;0.10;0.10;;;;;;;;;;5093115;28;20468;-79
2022/05/16 04:35:12;;;;;;;0.10;0.10;;;;;;;;;;5096528;28;20066;-78
2022/05/16 04:37:39;;;;;;;0.10;0.10;;;;;;;;;;5092231;28;20027;-78
2022/05/16 04:40:08;;;;;;;0.10;0.10;;;;;;;;;;5092255;28;20063;-78
2022/05/16 04:42:40;;;;;;;0.10;0.10;;;;;;;;;;5093640;28;20477;-78
2022/05/16 04:45:08;;;;;;;0.00;0.00;;;;;;;;;;5093060;28;20377;-78
2022/05/16 04:47:34;;;;;;;0.10;0.10;;;;;;;;;;5091900;28;20031;-78
2022/05/16 04:50:00;;;;;;;0.10;0.10;;;;;;;;;;5091646;28;20110;-79
2022/05/16 04:52:26;;;;;;;0.10;0.10;;;;;;;;;;5092953;28;20027;-80
2022/05/16 04:54:52;;;;;;;0.10;0.10;;;;;;;;;;5092244;28;20442;-80
2022/05/16 04:57:19;;;;;;;0.10;0.10;;;;;;;;;;5099583;28;20468;-79
2022/05/16 04:59:49;;;;;;;0.10;0.10;;;;;;;;;;5111115;28;20039;-79
2022/05/16 05:02:15;;;;;;;0.10;0.10;;;;;;;;;;5111314;28;20056;-80
2022/05/16 05:04:42;;;;;;;0.10;0.10;;;;;;;;;;5112858;28;20032;-79
2022/05/16 05:07:08;;;;;;;0.10;0.10;;;;;;;;;;5111446;28;20031;-78
2022/05/16 05:14:31;;;;;;;0.10;0.10;;;;;;;;;;5107604;28;20039;-79
2022/05/16 05:15:05;;;;;;;0.10;0.10;;;;;;;;;;5092812;28;20078;-80
2022/05/16 05:17:31;;;;;;;0.10;0.10;;;;;;;;;;5104512;28;20114;-80
2022/05/16 05:19:57;;;;;;;0.10;0.10;;;;;;;;;;5105076;28;20028;-80
2022/05/16 05:22:23;;;;;;;0.10;0.10;;;;;;;;;;5112860;28;20020;-80
2022/05/16 05:24:49;;;;;;;0.10;0.10;;;;;;;;;;5112418;28;20479;-78
2022/05/16 05:27:15;;;;;;;0.10;0.10;;;;;;;;;;5111452;28;20080;-79
2022/05/16 05:29:41;;;;;;;0.10;0.10;;;;;;;;;;5112379;28;20106;-78
2022/05/16 05:32:08;;;;;;;0.10;0.10;;;;;;;;;;5112924;28;20128;-79
2022/05/16 05:34:37;;;;;;;0.10;0.10;;;;;;;;;;5097633;28;20055;-78
2022/05/16 05:37:03;;;;;;;0.10;0.10;;;;;;;;;;5088656;28;20047;-79
2022/05/16 05:39:31;;;;;;;0.03;0.03;;;;;;;;;;5092077;28;20070;-78
2022/05/16 05:41:57;;;;;;;0.10;0.10;;;;;;;;;;5091583;28;20016;-77
2022/05/16 05:44:23;;;;;;;0.10;0.10;;;;;;;;;;5090615;28;20050;-78
2022/05/16 05:46:49;;;;;;;0.10;0.10;;;;;;;;;;5091734;28;20376;-79
2022/05/16 05:49:15;;;;;;;0.10;0.10;;;;;;;;;;5094912;28;20043;-78
2022/05/16 05:51:41;;;;;;;0.10;0.10;;;;;;;;;;5096838;28;20030;-77
2022/05/16 05:54:08;;;;;;;0.10;0.10;;;;;;;;;;5108519;28;20745;-77
2022/05/16 05:56:34;;;;;;;0.10;0.10;;;;;;;;;;5109669;28;20100;-79
2022/05/16 05:59:00;;;;;;;0.10;0.10;;;;;;;;;;5111510;28;20074;-79
2022/05/16 06:01:26;;;;;;;0.10;0.10;;;;;;;;;;5098141;28;20028;-79
2022/05/16 06:03:53;;;;;;;0.10;0.10;;;;;;;;;;5091468;28;20020;-78
2022/05/16 06:06:19;;;;;;;0.10;0.10;;;;;;;;;;5090988;28;20412;-78
2022/05/16 06:08:45;;;;;;;0.10;0.10;;;;;;;;;;5089702;28;20521;-79
2022/05/16 06:11:11;;;;;;;0.10;0.10;;;;;;;;;;5091630;28;20021;-79
2022/05/16 06:13:38;;;;;;;0.10;0.10;;;;;;;;;;5091888;28;20069;-82
2022/05/16 06:16:05;;;;;;;0.10;0.10;;;;;;;;;;5094270;28;20031;-77
2022/05/16 06:18:31;;;;;;;0.15;0.15;;;;;;;;;;5091253;28;20028;-79
2022/05/16 06:20:57;;;;;;;0.10;0.10;;;;;;;;;;5091439;28;20039;-79
2022/05/16 06:23:23;;;;;;;0.10;0.10;;;;;;;;;;5090056;28;20040;-79
2022/05/16 06:25:49;;;;;;;0.10;0.10;;;;;;;;;;5089987;28;20510;-79
2022/05/16 06:28:16;;;;;;;0.10;0.10;;;;;;;;;;5091313;28;20024;-80
2022/05/16 06:30:43;;;;;;;0.10;0.10;;;;;;;;;;5091164;28;20515;-80
2022/05/16 06:33:09;;;;;;;0.10;0.10;;;;;;;;;;5091247;28;20024;-79
2022/05/16 06:35:36;;;;;;;0.10;0.10;;;;;;;;;;5091633;28;20024;-80
2022/05/16 06:38:10;;;;;;;0.10;0.10;;;;;;;;;;5091047;28;20051;-79
2022/05/16 06:40:38;;;;;;;0.35;0.35;;;;;;;;;;5091355;28;20079;-79
2022/05/16 06:43:04;;;;;;;0.00;0.00;;;;;;;;;;5091510;28;20016;-79
2022/05/16 06:45:30;;;;;;;0.10;0.10;;;;;;;;;;5089849;28;20085;-79
2022/05/16 06:47:56;;;;;;;0.10;0.10;;;;;;;;;;5085811;28;20050;-78
2022/05/16 06:50:23;;;;;;;0.10;0.10;;;;;;;;;;5110150;28;20455;-79
2022/05/16 06:52:49;;;;;;;0.10;0.10;;;;;;;;;;5103978;28;20028;-79
2022/05/16 06:55:16;;;;;;;0.10;0.10;;;;;;;;;;5090759;28;20054;-79
2022/05/16 06:57:42;;;;;;;0.10;0.10;;;;;;;;;;5100109;28;20048;-79
2022/05/16 07:00:08;;;;;;;0.10;0.10;;;;;;;;;;5111488;28;20519;-79
2022/05/16 07:02:35;;;;;;;0.10;0.10;;;;;;;;;;5107514;28;20023;-79
2022/05/16 07:05:01;;;;;;;0.10;0.10;;;;;;;;;;5090561;28;20028;-78
2022/05/16 07:07:28;;;;;;;0.10;0.10;;;;;;;;;;5090822;28;20037;-80
2022/05/16 07:09:54;;;;;;;0.10;0.10;;;;;;;;;;5089429;28;20590;-79
2022/05/16 07:12:20;;;;;;;0.03;0.03;;;;;;;;;;5091040;28;20153;-79
2022/05/16 07:14:48;;;;;;;0.10;0.10;;;;;;;;;;5090733;28;20031;-79
2022/05/16 07:17:14;;;;;;;0.10;0.10;;;;;;;;;;5101697;28;20059;-79
2022/05/16 07:19:40;;;;;;;0.10;0.10;;;;;;;;;;5093858;28;20043;-79
2022/05/16 07:22:10;;;;;;;0.10;0.10;;;;;;;;;;5095315;28;20107;-79
2022/05/16 07:24:37;;;;;;;0.10;0.10;;;;;;;;;;5095039;28;20024;-79
2022/05/16 07:29:47;;;;;;;0.10;0.10;;;;;;;;;;5082946;28;20104;-79
2022/05/16 07:32:13;;;;;;;0.10;0.10;;;;;;;;;;5095056;28;20035;-79
2022/05/16 07:34:39;;;;;;;0.10;0.10;;;;;;;;;;5112905;28;20105;-78
2022/05/16 07:37:06;;;;;;;0.10;0.10;;;;;;;;;;5095924;28;20074;-79
2022/05/16 07:39:35;;;;;;;0.10;0.10;;;;;;;;;;5094400;28;20036;-79
2022/05/16 07:42:01;;;;;;;0.10;0.10;;;;;;;;;;5094317;28;20020;-79
2022/05/16 07:44:27;;;;;;;0.10;0.10;;;;;;;;;;5095226;28;20457;-79
2022/05/16 07:46:53;;;;;;;0.10;0.10;;;;;;;;;;5094103;28;20058;-79
2022/05/16 07:49:20;;;;;;;0.10;0.10;;;;;;;;;;5094218;28;20100;-79
2022/05/16 07:51:46;;;;;;;0.10;0.10;;;;;;;;;;5093954;28;20024;-79
2022/05/16 07:54:12;;;;;;;0.10;0.10;;;;;;;;;;5105661;28;20069;-79
2022/05/16 07:56:39;;;;;;;0.10;0.10;;;;;;;;;;5093801;28;20081;-79
2022/05/16 07:59:06;;;;;;;0.10;0.10;;;;;;;;;;5094307;28;20028;-79
2022/05/16 08:01:32;;;;;;;0.10;0.10;;;;;;;;;;5091570;28;20423;-79
2022/05/16 08:03:58;;;;;;;0.10;0.10;;;;;;;;;;5098274;28;20518;-79
2022/05/16 08:06:27;;;;;;;0.10;0.10;;;;;;;;;;5102939;28;20059;-79
2022/05/16 08:11:38;;;;;;;0.10;0.10;;;;;;;;;;5097245;28;20093;-79
2022/05/16 08:14:05;;;;;;;0.10;0.10;;;;;;;;;;5092796;28;20020;-79
2022/05/16 08:16:31;;;;;;;0.10;0.10;;;;;;;;;;5106033;28;20383;-78
2022/05/16 08:18:57;;;;;;;0.10;0.10;;;;;;;;;;5093368;28;20020;-79
2022/05/16 08:21:23;;;;;;;0.10;0.10;;;;;;;;;;5092445;28;20472;-79
2022/05/16 08:23:49;;;;;;;0.10;0.10;;;;;;;;;;5093705;28;20464;-79
2022/05/16 08:26:15;;;;;;;0.10;0.10;;;;;;;;;;5096157;28;20035;-80
2022/05/16 08:28:42;;;;;;;0.10;0.10;;;;;;;;;;5093477;28;20020;-79
2022/05/16 08:31:08;;;;;;;0.10;0.10;;;;;;;;;;5092945;28;20024;-79
2022/05/16 08:33:35;;;;;;;0.10;0.10;;;;;;;;;;5093609;28;20020;-80
2022/05/16 08:41:32;;;;;;;0.10;0.10;;;;;;;;;;5093483;28;20039;-79
2022/05/16 08:44:08;;;;;;;0.10;0.10;;;;;;;;;;5092990;28;20396;-79
2022/05/16 08:46:37;;;;;;;0.10;0.10;;;;;;;;;;5110285;28;20062;-79
2022/05/16 08:49:22;;;;;;;0.10;0.10;;;;;;;;;;5113331;28;20047;-79
2022/05/16 08:51:51;;;;;;;0.10;0.10;;;;;;;;;;5102901;28;20032;-79
2022/05/16 08:54:17;;;;;;;0.10;0.10;;;;;;;;;;5091380;28;20505;-79
2022/05/16 08:56:45;;;;;;;0.10;0.10;;;;;;;;;;5092594;28;20028;-82
2022/05/16 08:59:16;;;;;;;0.05;0.05;;;;;;;;;;5092745;28;20032;-80
2022/05/16 09:01:49;;;;;;;0.10;0.10;;;;;;;;;;5112993;28;20028;-80
2022/05/16 09:04:18;;;;;;;0.10;0.10;;;;;;;;;;5113200;28;20022;-80
2022/05/16 09:06:56;;;;;;;0.10;0.10;;;;;;;;;;5106581;28;20046;-79
2022/05/16 09:09:26;;;;;;;0.10;0.10;;;;;;;;;;5092385;28;20058;-80
2022/05/16 09:12:01;;;;;;;0.10;0.10;;;;;;;;;;5091229;28;20065;-80
2022/05/16 09:14:46;;;;;;;0.10;0.10;;;;;;;;;;5092633;28;20070;-80
2022/05/16 09:17:16;;;;;;;0.10;0.10;;;;;;;;;;5092137;28;20105;-79
2022/05/16 09:20:01;;;;;;;0.10;0.10;;;;;;;;;;5092043;28;20036;-80
2022/05/16 09:22:38;;;;;;;0.10;0.10;;;;;;;;;;5091121;28;20028;-79
2022/05/16 09:25:24;;;;;;;0.10;0.10;;;;;;;;;;5092781;28;20023;-79
2022/05/16 09:30:44;;;;;;;0.10;0.10;;;;;;;;;;5093496;28;20073;-80
2022/05/16 09:33:16;;;;;;;0.10;0.10;;;;;;;;;;5112706;28;20028;-79
2022/05/16 09:35:57;;;;;;;0.10;0.10;;;;;;;;;;5112401;28;20024;-81
2022/05/16 09:38:23;;;;;;;0.10;0.10;;;;;;;;;;5112593;28;20023;-81
2022/05/16 09:41:01;;;;;;;0.10;0.10;;;;;;;;;;5112126;28;20074;-81
2022/05/16 09:43:32;;;;;;;0.10;0.10;;;;;;;;;;5110253;28;20027;-80
2022/05/16 09:46:05;;;;;;;0.10;0.10;;;;;;;;;;5110883;28;20360;-80
2022/05/16 09:48:31;;;;;;;0.10;0.10;;;;;;;;;;5112703;28;20054;-80
2022/05/16 09:50:59;;;;;;;3.92;3.60;;;;;;;;;;5110110;28;20055;-80
2022/05/16 09:53:29;;;;;;;0.10;0.10;;;;;;;;;;5103781;28;20080;-80
2022/05/16 09:55:57;;;;;;;0.10;0.10;;;;;;;;;;5108070;28;20400;-80
2022/05/16 09:58:30;;;;;;;0.10;0.10;;;;;;;;;;5093732;28;20034;-80
2022/05/16 10:00:58;;;;;;;0.10;0.10;;;;;;;;;;5091371;28;20081;-80
2022/05/16 10:03:24;;;;;;;0.10;0.10;;;;;;;;;;5100618;28;20019;-81
2022/05/16 10:05:51;;;;;;;0.10;0.10;;;;;;;;;;5109574;28;20549;-79
2022/05/16 10:08:26;;;;;;;0.10;0.10;;;;;;;;;;5111913;28;20085;-80
2022/05/16 10:10:54;;;;;;;0.10;0.10;;;;;;;;;;5111073;28;20039;-80
2022/05/16 10:13:20;;;;;;;0.10;0.10;;;;;;;;;;5109176;28;20474;-80
2022/05/16 10:15:49;;;;;;;0.10;0.10;;;;;;;;;;5097522;28;20028;-80
2022/05/16 10:18:18;;;;;;;0.10;0.10;;;;;;;;;;5091947;28;20475;-79
2022/05/16 10:20:47;;;;;;;0.10;0.10;;;;;;;;;;5102484;28;20040;-80
2022/05/16 10:23:19;;;;;;;0.10;0.10;;;;;;;;;;5098892;28;20502;-79
2022/05/16 10:25:46;;;;;;;0.10;0.10;;;;;;;;;;5107570;28;20016;-80
2022/05/16 10:28:15;;;;;;;0.10;0.10;;;;;;;;;;5091440;28;20069;-80
2022/05/16 10:33:38;;;;;;;0.10;0.10;;;;;;;;;;5074512;28;20036;-79
2022/05/16 10:36:23;;;;;;;0.10;0.10;;;;;;;;;;5109967;28;20464;-80
2022/05/16 10:38:58;;;;;;;0.10;0.10;;;;;;;;;;5087850;28;20020;-79
2022/05/16 10:41:27;;;;;;;0.10;0.10;;;;;;;;;;5089626;28;20464;-80
2022/05/16 10:44:09;;;;;;;0.10;0.10;;;;;;;;;;5090741;28;20027;-79
2022/05/16 10:46:37;;;;;;;0.10;0.10;;;;;;;;;;5099437;28;20077;-80
2022/05/16 10:49:05;;;;;;;0.10;0.10;;;;;;;;;;5090919;28;20085;-80
2022/05/16 10:51:49;;;;;;;0.10;0.10;;;;;;;;;;5091193;28;20074;-80
2022/05/16 10:54:19;;;;;;;0.10;0.10;;;;;;;;;;5098160;28;20036;-79
2022/05/16 10:56:54;;;;;;;0.10;0.10;;;;;;;;;;5113634;28;20020;-80
2022/05/16 10:59:31;;;;;;;0.10;0.10;;;;;;;;;;5095070;28;20059;-79
2022/05/16 11:01:57;;;;;;;0.10;0.10;;;;;;;;;;5093730;28;20032;-79
2022/05/16 11:04:29;;;;;;;0.10;0.10;;;;;;;;;;5094932;28;20020;-80
2022/05/16 11:06:55;;;;;;;0.10;0.10;;;;;;;;;;5094664;28;20023;-81
2022/05/16 11:09:37;;;;;;;0.10;0.10;;;;;;;;;;5095078;28;20024;-81
2022/05/16 11:12:07;;;;;;;0.10;0.10;;;;;;;;;;5093379;28;20016;-79
2022/05/16 11:14:38;;;;;;;0.10;0.10;;;;;;;;;;5094982;28;20028;-81
2022/05/16 11:17:23;;;;;;;0.10;0.10;;;;;;;;;;5093716;28;20055;-81
2022/05/16 11:19:54;;;;;;;0.10;0.10;;;;;;;;;;5094278;28;20036;-80
2022/05/16 11:22:31;;;;;;;0.10;0.10;;;;;;;;;;5094820;28;20064;-80
2022/05/16 11:25:07;;;;;;;0.10;0.10;;;;;;;;;;5094629;28;20095;-80
2022/05/16 11:27:33;;;;;;;0.10;0.10;;;;;;;;;;5097567;28;20024;-80
2022/05/16 11:30:06;;;;;;;0.08;0.08;;;;;;;;;;5094466;28;20542;-81
2022/05/16 11:32:32;;;;;;;0.10;0.10;;;;;;;;;;5094554;28;20484;-80
2022/05/16 11:35:18;;;;;;;0.10;0.10;;;;;;;;;;5094388;28;20031;-81
2022/05/16 11:37:51;;;;;;;0.10;0.10;;;;;;;;;;5094294;28;20024;-81
2022/05/16 11:40:35;;;;;;;0.10;0.10;;;;;;;;;;5097029;28;20034;-78
2022/05/16 11:43:07;;;;;;;0.10;0.10;;;;;;;;;;5107839;28;20368;-77
2022/05/16 11:45:46;;;;;;;0.10;0.10;;;;;;;;;;5115002;28;20479;-80
2022/05/16 11:48:15;;;;;;;0.10;0.10;;;;;;;;;;5113666;28;20076;-81
2022/05/16 11:50:56;;;;;;;0.10;0.10;;;;;;;;;;5114837;28;20064;-77
2022/05/16 11:53:35;;;;;;;0.10;0.10;;;;;;;;;;5114621;28;20036;-80
2022/05/16 12:01:33;;;;;;;0.10;0.10;;;;;;;;;;5094596;28;20074;-80
2022/05/16 12:04:05;;;;;;;0.10;0.10;;;;;;;;;;5093783;28;20431;-78
2022/05/16 12:06:35;;;;;;;0.10;0.10;;;;;;;;;;5091652;28;20538;-81
2022/05/16 12:09:15;;;;;;;0.08;0.08;;;;;;;;;;5093986;28;20020;-84
2022/05/16 12:11:51;;;;;;;0.10;0.10;;;;;;;;;;5109113;28;20032;-81
2022/05/16 12:14:32;;;;;;;0.10;0.10;;;;;;;;;;5114444;28;20026;-82
2022/05/16 12:17:07;;;;;;;0.10;0.10;;;;;;;;;;5112791;28;20043;-78
2022/05/16 12:19:37;;;;;;;0.10;0.10;;;;;;;;;;5112902;28;20027;-82
2022/05/16 12:22:03;;;;;;;0.10;0.10;;;;;;;;;;5113951;28;20093;-81
2022/05/16 12:24:30;;;;;;;0.10;0.10;;;;;;;;;;5113542;28;20130;-82
2022/05/16 12:27:00;;;;;;;0.10;0.10;;;;;;;;;;5111234;28;20372;-81
2022/05/16 12:29:31;;;;;;;0.05;0.05;;;;;;;;;;5107384;28;20444;-79
2022/05/16 12:31:58;;;;;;;0.10;0.10;;;;;;;;;;5093409;28;20140;-82
2022/05/16 12:34:30;;;;;;;0.10;0.10;;;;;;;;;;5093586;28;20478;-79
2022/05/16 12:37:00;;;;;;;0.10;0.10;;;;;;;;;;5093142;28;20062;-79
2022/05/16 12:39:31;;;;;;;0.10;0.10;;;;;;;;;;5093436;28;20471;-80
2022/05/16 12:42:16;;;;;;;0.10;0.10;;;;;;;;;;5111460;28;20027;-81
2022/05/16 12:44:56;;;;;;;0.10;0.10;;;;;;;;;;5072986;28;20024;-79
2022/05/16 12:47:25;;;;;;;0.10;0.10;;;;;;;;;;5073069;28;20032;-79
2022/05/16 12:50:10;;;;;;;0.10;0.10;;;;;;;;;;5102943;28;20099;-79
2022/05/16 12:52:36;;;;;;;0.10;0.10;;;;;;;;;;5114199;28;20026;-79
2022/05/16 12:55:01;;;;;;;0.10;0.10;;;;;;;;;;5110744;28;20028;-80
2022/05/16 12:57:46;;;;;;;0.10;0.10;;;;;;;;;;5103604;28;20024;-80
2022/05/16 13:00:19;;;;;;;0.10;0.10;;;;;;;;;;5092874;28;20047;-82
2022/05/16 13:02:52;;;;;;;0.10;0.10;;;;;;;;;;5091095;28;20103;-83
2022/05/16 13:05:29;;;;;;;0.10;0.10;;;;;;;;;;5092784;28;20040;-82
2022/05/16 13:07:55;;;;;;;0.00;0.00;;;;;;;;;;5111642;28;20034;-82
2022/05/16 13:10:43;;;;;;;0.10;0.10;;;;;;;;;;5106721;28;20051;-81
2022/05/16 13:13:09;;;;;;;0.10;0.10;;;;;;;;;;5113390;28;20047;-80
2022/05/16 13:15:47;;;;;;;0.10;0.10;;;;;;;;;;5113256;28;20024;-81
2022/05/16 13:18:19;;;;;;;0.10;0.10;;;;;;;;;;5113047;28;20030;-81
2022/05/16 13:20:45;;;;;;;0.10;0.10;;;;;;;;;;5112596;28;20067;-81
2022/05/16 13:23:13;;;;;;;0.10;0.10;;;;;;;;;;5112883;28;20468;-82
2022/05/16 13:31:08;;;;;;;0.10;0.10;;;;;;;;;;5104652;28;20075;-82
2022/05/16 13:33:36;;;;;;;0.10;0.10;;;;;;;;;;5111643;28;20031;-81
2022/05/16 13:36:16;;;;;;;0.10;0.10;;;;;;;;;;5091321;28;20388;-82
2022/05/16 13:38:42;;;;;;;0.10;0.10;;;;;;;;;;5090747;28;20035;-82
2022/05/16 13:41:08;;;;;;;0.10;0.10;;;;;;;;;;5094324;28;20035;-81
2022/05/16 13:43:34;;;;;;;0.10;0.10;;;;;;;;;;5092318;28;20081;-81
2022/05/16 13:46:01;;;;;;;0.10;0.10;;;;;;;;;;5092046;28;20085;-82
2022/05/16 13:48:27;;;;;;;0.10;0.10;;;;;;;;;;5090684;28;20024;-81
2022/05/16 13:50:53;;;;;;;0.00;0.00;;;;;;;;;;5092054;28;20031;-81
2022/05/16 13:53:22;;;;;;;0.10;0.10;;;;;;;;;;5091864;28;20027;-80
2022/05/16 13:55:52;;;;;;;0.10;0.10;;;;;;;;;;5108180;28;20026;-82
2022/05/16 13:58:19;;;;;;;0.10;0.10;;;;;;;;;;5112366;28;20034;-81
2022/05/16 14:00:53;;;;;;;0.10;0.10;;;;;;;;;;5105868;28;20039;-79
2022/05/16 14:03:19;;;;;;;0.10;0.10;;;;;;;;;;5112268;28;20026;-80
2022/05/16 14:05:45;;;;;;;0.10;0.10;;;;;;;;;;5112068;28;20031;-80
2022/05/16 14:08:20;;;;;;;0.10;0.10;;;;;;;;;;5111928;28;20111;-80
2022/05/16 14:10:47;;;;;;;0.10;0.10;;;;;;;;;;5111944;28;20047;-81
2022/05/16 14:13:15;;;;;;;0.10;0.10;;;;;;;;;;5110900;28;20433;-79
2022/05/16 14:15:48;;;;;;;0.10;0.10;;;;;;;;;;5110515;28;20034;-81
2022/05/16 14:18:24;;;;;;;0.10;0.10;;;;;;;;;;5094786;28;20027;-80
2022/05/16 14:20:55;;;;;;;0.10;0.10;;;;;;;;;;5091270;28;20054;-81
2022/05/16 14:23:24;;;;;;;0.10;0.10;;;;;;;;;;5091452;28;20072;-81
2022/05/16 14:25:51;;;;;;;0.10;0.10;;;;;;;;;;5091265;28;20103;-81
2022/05/16 14:28:20;;;;;;;0.10;0.10;;;;;;;;;;5091591;28;20038;-82
2022/05/16 14:30:54;;;;;;;0.10;0.10;;;;;;;;;;5091295;28;20476;-80
2022/05/16 14:33:21;;;;;;;0.10;0.10;;;;;;;;;;5089822;28;20032;-81
2022/05/16 14:36:19;;;;;;;0.10;0.10;;;;;;;;;;5091112;28;20034;-81
2022/05/16 14:38:47;;;;;;;0.10;0.10;;;;;;;;;;5068207;28;20044;-81
2022/05/16 14:41:23;;;;;;;0.10;0.10;;;;;;;;;;5098036;28;20077;-81
2022/05/16 14:44:01;;;;;;;0.10;0.10;;;;;;;;;;5084643;28;20424;-81
2022/05/16 14:46:45;;;;;;;0.10;0.10;;;;;;;;;;5089486;28;20020;-80
2022/05/16 14:49:11;;;;;;;0.03;0.03;;;;;;;;;;5091424;28;20020;-80
2022/05/16 14:51:38;;;;;;;0.03;0.03;;;;;;;;;;5091487;28;20020;-81
2022/05/16 14:54:14;;;;;;;0.10;0.10;;;;;;;;;;5091493;28;20027;-80
2022/05/16 14:56:40;;;;;;;0.10;0.10;;;;;;;;;;5089391;28;20450;-80
2022/05/16 14:59:06;;;;;;;0.10;0.10;;;;;;;;;;5091332;28;20074;-80
2022/05/16 15:04:16;;;;;;;0.10;0.10;;;;;;;;;;5091162;28;20063;-82
2022/05/16 15:06:43;;;;;;;0.10;0.10;;;;;;;;;;5089415;28;20068;-80
2022/05/16 15:09:11;;;;;;;0.10;0.10;;;;;;;;;;5089839;28;20028;-80
2022/05/16 15:11:42;;;;;;;0.10;0.10;;;;;;;;;;5090320;28;20020;-81
2022/05/16 15:14:08;;;;;;;0.10;0.10;;;;;;;;;;5101098;28;20051;-81
2022/05/16 15:16:34;;;;;;;0.10;0.10;;;;;;;;;;5090995;28;20058;-82
2022/05/16 15:19:00;;;;;;;0.10;0.10;;;;;;;;;;5089224;28;20031;-81
2022/05/16 15:21:27;;;;;;;0.00;0.00;;;;;;;;;;5090436;28;20050;-81
2022/05/16 15:23:53;;;;;;;0.08;0.08;;;;;;;;;;5090757;28;20099;-80
2022/05/16 15:26:20;;;;;;;0.10;0.10;;;;;;;;;;5090916;28;20059;-81
2022/05/16 15:28:46;;;;;;;0.10;0.10;;;;;;;;;;5092957;28;20100;-81
2022/05/16 15:31:12;;;;;;;0.10;0.10;;;;;;;;;;5091721;28;20047;-81
2022/05/16 15:33:38;;;;;;;0.10;0.10;;;;;;;;;;5104706;28;20114;-81
2022/05/16 15:36:06;;;;;;;0.10;0.10;;;;;;;;;;5091041;28;20024;-81